sensor_id;sensor_type;location;lat;lon;timestamp;temperature;humidity
12015;DHT22;6066;48.138;16.402;2023-03-03T00:00:22;-0.10;99.90
12015;DHT22;6066;48.138;16.402;2023-03-03T00:02:50;-0.10;99.90
12015;DHT22;6066;48.138;16.402;2023-03-03T00:05:17;-0.10;99.90
12015;DHT22;6066;48.138;16.402;2023-03-03T00:07:44;-0.20;99.90
12015;DHT22;6066;48.138;16.402;2023-03-03T00:10:12;-0.20;99.90
12015;DHT22;6066;48.138;16.402;2023-03-03T00:12:44;-0.20;99.90
12015;DHT22;6066;48.138;16.402;2023-03-03T00:15:12;-0.20;99.90
12015;DHT22;6066;48.138;16.402;2023-03-03T00:17:39;-0.20;99.90
12015;DHT22;6066;48.138;16.402;2023-03-03T00:22:49;-0.20;99.90
12015;DHT22;6066;48.138;16.402;2023-03-03T00:25:20;-0.20;99.90
12015;DHT22;6066;48.138;16.402;2023-03-03T00:27:50;-0.20;99.90
12015;DHT22;6066;48.138;16.402;2023-03-03T00:30:19;-0.30;99.90
12015;DHT22;6066;48.138;16.402;2023-03-03T00:32:48;-0.30;99.90
12015;DHT22;6066;48.138;16.402;2023-03-03T00:35:20;-0.30;99.90
12015;DHT22;6066;48.138;16.402;2023-03-03T00:37:51;-0.30;99.90
12015;DHT22;6066;48.138;16.402;2023-03-03T00:40:21;-0.30;99.90
12015;DHT22;6066;48.138;16.402;2023-03-03T00:42:51;-0.30;99.90
12015;DHT22;6066;48.138;16.402;2023-03-03T00:48:10;-0.30;99.90
12015;DHT22;6066;48.138;16.402;2023-03-03T00:50:42;-0.30;99.90
12015;DHT22;6066;48.138;16.402;2023-03-03T00:53:11;-0.40;99.90
12015;DHT22;6066;48.138;16.402;2023-03-03T00:55:39;-0.40;99.90
12015;DHT22;6066;48.138;16.402;2023-03-03T00:58:05;-0.40;99.90
12015;DHT22;6066;48.138;16.402;2023-03-03T01:00:32;-0.40;99.90
12015;DHT22;6066;48.138;16.402;2023-03-03T01:02:59;-0.40;99.90
12015;DHT22;6066;48.138;16.402;2023-03-03T01:05:27;-0.40;99.90
12015;DHT22;6066;48.138;16.402;2023-03-03T01:07:54;-0.50;99.90
12015;DHT22;6066;48.138;16.402;2023-03-03T01:10:22;-0.50;99.90
12015;DHT22;6066;48.138;16.402;2023-03-03T01:12:49;-0.50;99.90
12015;DHT22;6066;48.138;16.402;2023-03-03T01:15:15;-0.50;99.90
12015;DHT22;6066;48.138;16.402;2023-03-03T01:17:42;-0.60;99.90
12015;DHT22;6066;48.138;16.402;2023-03-03T01:20:10;-0.60;99.90
12015;DHT22;6066;48.138;16.402;2023-03-03T01:22:37;-0.60;99.90
12015;DHT22;6066;48.138;16.402;2023-03-03T01:25:04;-0.60;99.90
12015;DHT22;6066;48.138;16.402;2023-03-03T01:27:32;-0.60;99.90
12015;DHT22;6066;48.138;16.402;2023-03-03T01:29:59;-0.70;99.90
12015;DHT22;6066;48.138;16.402;2023-03-03T01:32:26;-0.60;99.90
12015;DHT22;6066;48.138;16.402;2023-03-03T01:34:53;-0.70;99.90
12015;DHT22;6066;48.138;16.402;2023-03-03T01:37:20;-0.70;99.90
12015;DHT22;6066;48.138;16.402;2023-03-03T01:39:47;-0.70;99.90
12015;DHT22;6066;48.138;16.402;2023-03-03T01:42:14;-0.70;99.90
12015;DHT22;6066;48.138;16.402;2023-03-03T01:44:42;-0.70;99.90
12015;DHT22;6066;48.138;16.402;2023-03-03T01:47:09;-0.70;99.90
12015;DHT22;6066;48.138;16.402;2023-03-03T01:49:38;-0.70;99.90
12015;DHT22;6066;48.138;16.402;2023-03-03T01:52:09;-0.70;99.90
12015;DHT22;6066;48.138;16.402;2023-03-03T01:54:38;-0.70;99.90
12015;DHT22;6066;48.138;16.402;2023-03-03T01:57:08;-0.70;99.90
12015;DHT22;6066;48.138;16.402;2023-03-03T01:59:36;-0.70;99.90
12015;DHT22;6066;48.138;16.402;2023-03-03T02:02:07;-0.70;99.90
12015;DHT22;6066;48.138;16.402;2023-03-03T02:04:34;-0.70;99.90
12015;DHT22;6066;48.138;16.402;2023-03-03T02:07:02;-0.70;99.90
12015;DHT22;6066;48.138;16.402;2023-03-03T02:09:31;-0.70;99.90
12015;DHT22;6066;48.138;16.402;2023-03-03T02:12:04;-0.70;99.90
12015;DHT22;6066;48.138;16.402;2023-03-03T02:14:31;-0.70;99.90
12015;DHT22;6066;48.138;16.402;2023-03-03T02:16:58;-0.60;99.90
12015;DHT22;6066;48.138;16.402;2023-03-03T02:19:28;-0.50;99.90
12015;DHT22;6066;48.138;16.402;2023-03-03T02:21:57;-0.50;99.90
12015;DHT22;6066;48.138;16.402;2023-03-03T02:24:27;-0.40;99.90
12015;DHT22;6066;48.138;16.402;2023-03-03T02:26:56;-0.30;99.90
12015;DHT22;6066;48.138;16.402;2023-03-03T02:29:23;-0.20;99.90
12015;DHT22;6066;48.138;16.402;2023-03-03T02:31:50;-0.10;99.90
12015;DHT22;6066;48.138;16.402;2023-03-03T02:34:17;-0.10;99.90
12015;DHT22;6066;48.138;16.402;2023-03-03T02:36:45;0.00;99.90
12015;DHT22;6066;48.138;16.402;2023-03-03T02:39:13;0.10;99.90
12015;DHT22;6066;48.138;16.402;2023-03-03T02:41:44;0.20;99.90
12015;DHT22;6066;48.138;16.402;2023-03-03T02:44:14;0.20;99.90
12015;DHT22;6066;48.138;16.402;2023-03-03T02:46:42;0.20;99.90
12015;DHT22;6066;48.138;16.402;2023-03-03T02:49:10;0.20;99.90
12015;DHT22;6066;48.138;16.402;2023-03-03T02:51:36;0.20;99.90
12015;DHT22;6066;48.138;16.402;2023-03-03T02:54:03;0.20;99.90
12015;DHT22;6066;48.138;16.402;2023-03-03T02:56:30;0.30;99.90
12015;DHT22;6066;48.138;16.402;2023-03-03T02:58:57;0.30;99.90
12015;DHT22;6066;48.138;16.402;2023-03-03T03:01:25;0.30;99.90
12015;DHT22;6066;48.138;16.402;2023-03-03T03:03:51;0.30;99.90
12015;DHT22;6066;48.138;16.402;2023-03-03T03:06:19;0.30;99.90
12015;DHT22;6066;48.138;16.402;2023-03-03T03:08:46;0.30;99.90
12015;DHT22;6066;48.138;16.402;2023-03-03T03:11:12;0.30;99.90
12015;DHT22;6066;48.138;16.402;2023-03-03T03:13:39;0.40;99.90
12015;DHT22;6066;48.138;16.402;2023-03-03T03:16:06;0.40;99.90
12015;DHT22;6066;48.138;16.402;2023-03-03T03:18:34;0.40;99.90
12015;DHT22;6066;48.138;16.402;2023-03-03T03:21:07;0.40;99.90
12015;DHT22;6066;48.138;16.402;2023-03-03T03:23:34;0.40;99.90
12015;DHT22;6066;48.138;16.402;2023-03-03T03:26:01;0.40;99.90
12015;DHT22;6066;48.138;16.402;2023-03-03T03:28:28;0.40;99.90
12015;DHT22;6066;48.138;16.402;2023-03-03T03:30:54;0.40;99.90
12015;DHT22;6066;48.138;16.402;2023-03-03T03:33:21;0.40;99.90
12015;DHT22;6066;48.138;16.402;2023-03-03T03:35:49;0.40;99.90
12015;DHT22;6066;48.138;16.402;2023-03-03T03:38:16;0.40;99.90
12015;DHT22;6066;48.138;16.402;2023-03-03T03:40:43;0.40;99.90
12015;DHT22;6066;48.138;16.402;2023-03-03T03:43:09;0.30;99.90
12015;DHT22;6066;48.138;16.402;2023-03-03T03:45:36;0.30;99.90
12015;DHT22;6066;48.138;16.402;2023-03-03T03:48:03;0.30;99.90
12015;DHT22;6066;48.138;16.402;2023-03-03T03:50:30;0.20;99.90
12015;DHT22;6066;48.138;16.402;2023-03-03T03:52:58;0.20;99.90
12015;DHT22;6066;48.138;16.402;2023-03-03T03:55:24;0.10;99.90
12015;DHT22;6066;48.138;16.402;2023-03-03T03:57:51;0.10;99.90
12015;DHT22;6066;48.138;16.402;2023-03-03T04:00:18;0.00;99.90
12015;DHT22;6066;48.138;16.402;2023-03-03T04:02:44;0.00;99.90
12015;DHT22;6066;48.138;16.402;2023-03-03T04:05:11;0.00;99.90
12015;DHT22;6066;48.138;16.402;2023-03-03T04:07:38;-0.10;99.90
12015;DHT22;6066;48.138;16.402;2023-03-03T04:10:06;-0.10;99.90
12015;DHT22;6066;48.138;16.402;2023-03-03T04:12:33;-0.10;99.90
12015;DHT22;6066;48.138;16.402;2023-03-03T04:15:03;-0.20;99.90
12015;DHT22;6066;48.138;16.402;2023-03-03T04:17:30;-0.20;99.90
12015;DHT22;6066;48.138;16.402;2023-03-03T04:19:57;-0.20;99.90
12015;DHT22;6066;48.138;16.402;2023-03-03T04:22:23;-0.30;99.90
12015;DHT22;6066;48.138;16.402;2023-03-03T04:24:50;-0.30;99.90
12015;DHT22;6066;48.138;16.402;2023-03-03T04:27:18;-0.40;99.90
12015;DHT22;6066;48.138;16.402;2023-03-03T04:29:45;-0.40;99.90
12015;DHT22;6066;48.138;16.402;2023-03-03T04:32:11;-0.40;99.90
12015;DHT22;6066;48.138;16.402;2023-03-03T04:34:38;-0.50;99.90
12015;DHT22;6066;48.138;16.402;2023-03-03T04:37:05;-0.50;99.90
12015;DHT22;6066;48.138;16.402;2023-03-03T04:39:31;-0.50;99.90
12015;DHT22;6066;48.138;16.402;2023-03-03T04:41:58;-0.60;99.90
12015;DHT22;6066;48.138;16.402;2023-03-03T04:44:26;-0.60;99.90
12015;DHT22;6066;48.138;16.402;2023-03-03T04:46:53;-0.60;99.90
12015;DHT22;6066;48.138;16.402;2023-03-03T04:49:19;-0.60;99.90
12015;DHT22;6066;48.138;16.402;2023-03-03T04:51:46;-0.60;99.90
12015;DHT22;6066;48.138;16.402;2023-03-03T04:54:13;-0.70;99.90
12015;DHT22;6066;48.138;16.402;2023-03-03T04:56:39;-0.70;99.90
12015;DHT22;6066;48.138;16.402;2023-03-03T04:59:06;-0.70;99.90
12015;DHT22;6066;48.138;16.402;2023-03-03T05:01:34;-0.70;99.90
12015;DHT22;6066;48.138;16.402;2023-03-03T05:04:01;-0.80;99.90
12015;DHT22;6066;48.138;16.402;2023-03-03T05:06:27;-0.80;99.90
12015;DHT22;6066;48.138;16.402;2023-03-03T05:08:54;-0.80;99.90
12015;DHT22;6066;48.138;16.402;2023-03-03T05:11:21;-0.80;99.90
12015;DHT22;6066;48.138;16.402;2023-03-03T05:13:47;-0.90;99.90
12015;DHT22;6066;48.138;16.402;2023-03-03T05:16:14;-0.90;99.90
12015;DHT22;6066;48.138;16.402;2023-03-03T05:18:42;-0.90;99.90
12015;DHT22;6066;48.138;16.402;2023-03-03T05:21:09;-1.00;99.90
12015;DHT22;6066;48.138;16.402;2023-03-03T05:23:36;-1.00;99.90
12015;DHT22;6066;48.138;16.402;2023-03-03T05:26:03;-1.00;99.90
12015;DHT22;6066;48.138;16.402;2023-03-03T05:28:30;-1.00;99.90
12015;DHT22;6066;48.138;16.402;2023-03-03T05:30:56;-1.00;99.90
12015;DHT22;6066;48.138;16.402;2023-03-03T05:33:23;-1.00;99.90
12015;DHT22;6066;48.138;16.402;2023-03-03T05:35:53;-1.00;99.90
12015;DHT22;6066;48.138;16.402;2023-03-03T05:38:20;-1.00;99.90
12015;DHT22;6066;48.138;16.402;2023-03-03T05:40:47;-1.00;99.90
12015;DHT22;6066;48.138;16.402;2023-03-03T05:43:14;-1.00;99.90
12015;DHT22;6066;48.138;16.402;2023-03-03T05:45:40;-1.00;99.90
12015;DHT22;6066;48.138;16.402;2023-03-03T05:48:07;-0.90;99.90
12015;DHT22;6066;48.138;16.402;2023-03-03T05:50:35;-0.90;99.90
12015;DHT22;6066;48.138;16.402;2023-03-03T05:53:03;-0.90;99.90
12015;DHT22;6066;48.138;16.402;2023-03-03T05:55:30;-0.80;99.90
12015;DHT22;6066;48.138;16.402;2023-03-03T05:57:57;-0.80;99.90
12015;DHT22;6066;48.138;16.402;2023-03-03T06:00:23;-0.70;99.90
12015;DHT22;6066;48.138;16.402;2023-03-03T06:02:50;-0.60;99.90
12015;DHT22;6066;48.138;16.402;2023-03-03T06:05:17;-0.50;99.90
12015;DHT22;6066;48.138;16.402;2023-03-03T06:07:43;-0.40;99.90
12015;DHT22;6066;48.138;16.402;2023-03-03T06:10:11;-0.30;99.90
12015;DHT22;6066;48.138;16.402;2023-03-03T06:12:38;-0.20;99.90
12015;DHT22;6066;48.138;16.402;2023-03-03T06:15:06;-0.20;99.90
12015;DHT22;6066;48.138;16.402;2023-03-03T06:17:33;-0.10;99.90
12015;DHT22;6066;48.138;16.402;2023-03-03T06:20:00;0.00;99.90
12015;DHT22;6066;48.138;16.402;2023-03-03T06:22:27;0.20;99.90
12015;DHT22;6066;48.138;16.402;2023-03-03T06:24:54;0.40;99.90
12015;DHT22;6066;48.138;16.402;2023-03-03T06:27:22;0.60;99.90
12015;DHT22;6066;48.138;16.402;2023-03-03T06:29:49;0.80;99.90
12015;DHT22;6066;48.138;16.402;2023-03-03T06:32:15;1.00;99.90
12015;DHT22;6066;48.138;16.402;2023-03-03T06:34:42;1.20;99.90
12015;DHT22;6066;48.138;16.402;2023-03-03T06:37:09;1.50;99.90
12015;DHT22;6066;48.138;16.402;2023-03-03T06:39:36;1.70;99.90
12015;DHT22;6066;48.138;16.402;2023-03-03T06:42:02;1.90;99.90
12015;DHT22;6066;48.138;16.402;2023-03-03T06:44:30;2.00;99.90
12015;DHT22;6066;48.138;16.402;2023-03-03T06:46:57;2.20;99.90
12015;DHT22;6066;48.138;16.402;2023-03-03T06:49:24;2.40;99.90
12015;DHT22;6066;48.138;16.402;2023-03-03T06:51:50;2.50;99.90
12015;DHT22;6066;48.138;16.402;2023-03-03T06:54:18;2.60;99.90
12015;DHT22;6066;48.138;16.402;2023-03-03T06:56:45;2.70;99.90
12015;DHT22;6066;48.138;16.402;2023-03-03T06:59:13;2.80;99.90
12015;DHT22;6066;48.138;16.402;2023-03-03T07:01:41;2.90;99.90
12015;DHT22;6066;48.138;16.402;2023-03-03T07:04:16;3.00;99.90
12015;DHT22;6066;48.138;16.402;2023-03-03T07:06:45;3.10;99.90
12015;DHT22;6066;48.138;16.402;2023-03-03T07:09:14;3.20;99.90
12015;DHT22;6066;48.138;16.402;2023-03-03T07:11:44;3.30;99.90
12015;DHT22;6066;48.138;16.402;2023-03-03T07:14:13;3.30;99.90
12015;DHT22;6066;48.138;16.402;2023-03-03T07:16:42;3.40;99.90
12015;DHT22;6066;48.138;16.402;2023-03-03T07:19:13;3.40;99.90
12015;DHT22;6066;48.138;16.402;2023-03-03T07:21:42;3.40;99.90
12015;DHT22;6066;48.138;16.402;2023-03-03T07:24:14;3.40;99.90
12015;DHT22;6066;48.138;16.402;2023-03-03T07:26:43;3.50;99.90
12015;DHT22;6066;48.138;16.402;2023-03-03T07:29:14;3.50;99.90
12015;DHT22;6066;48.138;16.402;2023-03-03T07:31:44;3.60;99.90
12015;DHT22;6066;48.138;16.402;2023-03-03T07:34:13;3.60;99.90
12015;DHT22;6066;48.138;16.402;2023-03-03T07:36:42;3.70;99.90
12015;DHT22;6066;48.138;16.402;2023-03-03T07:39:17;3.70;99.90
12015;DHT22;6066;48.138;16.402;2023-03-03T07:41:45;3.80;99.90
12015;DHT22;6066;48.138;16.402;2023-03-03T07:44:12;3.90;99.90
12015;DHT22;6066;48.138;16.402;2023-03-03T07:46:45;3.90;99.90
12015;DHT22;6066;48.138;16.402;2023-03-03T07:49:19;4.00;99.90
12015;DHT22;6066;48.138;16.402;2023-03-03T07:51:51;4.00;99.90
12015;DHT22;6066;48.138;16.402;2023-03-03T07:54:25;4.10;99.90
12015;DHT22;6066;48.138;16.402;2023-03-03T07:56:54;4.20;99.90
12015;DHT22;6066;48.138;16.402;2023-03-03T07:59:22;4.20;99.90
12015;DHT22;6066;48.138;16.402;2023-03-03T08:01:51;4.30;99.90
12015;DHT22;6066;48.138;16.402;2023-03-03T08:04:20;4.30;99.90
12015;DHT22;6066;48.138;16.402;2023-03-03T08:06:51;4.40;99.90
12015;DHT22;6066;48.138;16.402;2023-03-03T08:12:15;4.50;99.90
12015;DHT22;6066;48.138;16.402;2023-03-03T08:14:43;4.60;99.90
12015;DHT22;6066;48.138;16.402;2023-03-03T08:17:13;4.60;99.90
12015;DHT22;6066;48.138;16.402;2023-03-03T08:19:42;4.70;99.90
12015;DHT22;6066;48.138;16.402;2023-03-03T08:22:11;4.80;99.90
12015;DHT22;6066;48.138;16.402;2023-03-03T08:24:39;4.80;99.90
12015;DHT22;6066;48.138;16.402;2023-03-03T08:27:05;4.80;99.90
12015;DHT22;6066;48.138;16.402;2023-03-03T08:29:32;4.90;99.90
12015;DHT22;6066;48.138;16.402;2023-03-03T08:31:59;5.00;99.90
12015;DHT22;6066;48.138;16.402;2023-03-03T08:34:27;5.10;99.90
12015;DHT22;6066;48.138;16.402;2023-03-03T08:36:53;5.20;99.90
12015;DHT22;6066;48.138;16.402;2023-03-03T08:39:22;5.30;99.90
12015;DHT22;6066;48.138;16.402;2023-03-03T08:41:49;5.30;99.90
12015;DHT22;6066;48.138;16.402;2023-03-03T08:44:15;5.40;99.90
12015;DHT22;6066;48.138;16.402;2023-03-03T08:46:43;5.50;99.90
12015;DHT22;6066;48.138;16.402;2023-03-03T08:49:10;5.60;99.90
12015;DHT22;6066;48.138;16.402;2023-03-03T08:51:38;5.80;99.90
12015;DHT22;6066;48.138;16.402;2023-03-03T08:54:05;5.90;99.90
12015;DHT22;6066;48.138;16.402;2023-03-03T08:56:32;6.00;99.90
12015;DHT22;6066;48.138;16.402;2023-03-03T08:58:59;6.10;99.90
12015;DHT22;6066;48.138;16.402;2023-03-03T09:01:25;6.20;99.90
12015;DHT22;6066;48.138;16.402;2023-03-03T09:03:52;6.30;99.90
12015;DHT22;6066;48.138;16.402;2023-03-03T09:06:19;6.40;99.90
12015;DHT22;6066;48.138;16.402;2023-03-03T09:08:47;6.40;99.90
12015;DHT22;6066;48.138;16.402;2023-03-03T09:11:14;6.50;99.90
12015;DHT22;6066;48.138;16.402;2023-03-03T09:13:45;6.60;99.90
12015;DHT22;6066;48.138;16.402;2023-03-03T09:16:17;6.70;99.90
12015;DHT22;6066;48.138;16.402;2023-03-03T09:18:45;6.80;99.90
12015;DHT22;6066;48.138;16.402;2023-03-03T09:21:15;6.90;99.90
12015;DHT22;6066;48.138;16.402;2023-03-03T09:23:43;7.00;99.90
12015;DHT22;6066;48.138;16.402;2023-03-03T09:26:23;7.10;99.90
12015;DHT22;6066;48.138;16.402;2023-03-03T09:28:52;7.20;99.90
12015;DHT22;6066;48.138;16.402;2023-03-03T09:31:21;7.40;99.90
12015;DHT22;6066;48.138;16.402;2023-03-03T09:33:49;7.50;99.90
12015;DHT22;6066;48.138;16.402;2023-03-03T09:36:20;7.70;99.90
12015;DHT22;6066;48.138;16.402;2023-03-03T09:38:48;7.80;99.90
12015;DHT22;6066;48.138;16.402;2023-03-03T09:41:20;7.80;99.90
12015;DHT22;6066;48.138;16.402;2023-03-03T09:43:54;7.90;99.90
12015;DHT22;6066;48.138;16.402;2023-03-03T09:46:25;7.90;99.90
12015;DHT22;6066;48.138;16.402;2023-03-03T09:49:00;7.90;99.90
12015;DHT22;6066;48.138;16.402;2023-03-03T09:51:38;8.00;99.90
12015;DHT22;6066;48.138;16.402;2023-03-03T09:54:10;8.10;99.90
12015;DHT22;6066;48.138;16.402;2023-03-03T09:56:40;8.20;99.90
12015;DHT22;6066;48.138;16.402;2023-03-03T09:59:17;8.20;99.90
12015;DHT22;6066;48.138;16.402;2023-03-03T10:01:53;8.30;99.90
12015;DHT22;6066;48.138;16.402;2023-03-03T10:04:39;8.30;99.90
12015;DHT22;6066;48.138;16.402;2023-03-03T10:07:12;8.30;99.90
12015;DHT22;6066;48.138;16.402;2023-03-03T10:09:45;8.30;99.90
12015;DHT22;6066;48.138;16.402;2023-03-03T10:12:15;8.40;99.90
12015;DHT22;6066;48.138;16.402;2023-03-03T10:14:54;8.50;99.90
12015;DHT22;6066;48.138;16.402;2023-03-03T10:17:25;8.50;99.90
12015;DHT22;6066;48.138;16.402;2023-03-03T10:20:04;8.60;99.90
12015;DHT22;6066;48.138;16.402;2023-03-03T10:22:33;8.70;99.90
12015;DHT22;6066;48.138;16.402;2023-03-03T10:25:02;8.80;99.90
12015;DHT22;6066;48.138;16.402;2023-03-03T10:27:34;8.90;99.90
12015;DHT22;6066;48.138;16.402;2023-03-03T10:30:06;9.00;99.90
12015;DHT22;6066;48.138;16.402;2023-03-03T10:32:41;9.00;99.90
12015;DHT22;6066;48.138;16.402;2023-03-03T10:35:15;9.10;99.90
12015;DHT22;6066;48.138;16.402;2023-03-03T10:37:47;9.20;99.90
12015;DHT22;6066;48.138;16.402;2023-03-03T10:40:19;9.20;99.90
12015;DHT22;6066;48.138;16.402;2023-03-03T10:43:00;9.40;99.90
12015;DHT22;6066;48.138;16.402;2023-03-03T10:45:44;9.60;99.90
12015;DHT22;6066;48.138;16.402;2023-03-03T10:50:53;9.80;99.90
12015;DHT22;6066;48.138;16.402;2023-03-03T10:53:24;9.80;99.90
12015;DHT22;6066;48.138;16.402;2023-03-03T10:55:56;9.80;99.90
12015;DHT22;6066;48.138;16.402;2023-03-03T10:58:34;9.90;99.90
12015;DHT22;6066;48.138;16.402;2023-03-03T11:01:06;9.90;99.90
12015;DHT22;6066;48.138;16.402;2023-03-03T11:03:45;9.90;99.90
12015;DHT22;6066;48.138;16.402;2023-03-03T11:06:17;10.00;99.90
12015;DHT22;6066;48.138;16.402;2023-03-03T11:08:47;10.10;99.90
12015;DHT22;6066;48.138;16.402;2023-03-03T11:11:17;10.10;99.90
12015;DHT22;6066;48.138;16.402;2023-03-03T11:13:46;10.30;99.90
12015;DHT22;6066;48.138;16.402;2023-03-03T11:16:36;10.40;99.90
12015;DHT22;6066;48.138;16.402;2023-03-03T11:19:06;10.50;99.90
12015;DHT22;6066;48.138;16.402;2023-03-03T11:21:39;10.50;99.90
12015;DHT22;6066;48.138;16.402;2023-03-03T11:24:14;10.60;99.90
12015;DHT22;6066;48.138;16.402;2023-03-03T11:29:38;10.60;99.90
12015;DHT22;6066;48.138;16.402;2023-03-03T11:32:12;10.60;99.90
12015;DHT22;6066;48.138;16.402;2023-03-03T11:34:45;10.70;99.90
12015;DHT22;6066;48.138;16.402;2023-03-03T11:37:15;10.70;99.90
12015;DHT22;6066;48.138;16.402;2023-03-03T11:39:43;10.80;99.90
12015;DHT22;6066;48.138;16.402;2023-03-03T11:42:11;11.00;99.90
12015;DHT22;6066;48.138;16.402;2023-03-03T11:44:43;11.10;99.90
12015;DHT22;6066;48.138;16.402;2023-03-03T11:47:13;11.10;99.90
12015;DHT22;6066;48.138;16.402;2023-03-03T11:49:46;11.20;99.90
12015;DHT22;6066;48.138;16.402;2023-03-03T11:52:21;11.40;99.90
12015;DHT22;6066;48.138;16.402;2023-03-03T11:54:51;11.30;99.90
12015;DHT22;6066;48.138;16.402;2023-03-03T11:57:20;11.20;99.90
12015;DHT22;6066;48.138;16.402;2023-03-03T11:59:52;11.20;99.90
12015;DHT22;6066;48.138;16.402;2023-03-03T12:02:35;11.20;99.90
12015;DHT22;6066;48.138;16.402;2023-03-03T12:05:09;11.30;99.90
12015;DHT22;6066;48.138;16.402;2023-03-03T12:07:40;11.40;99.90
12015;DHT22;6066;48.138;16.402;2023-03-03T12:10:13;11.50;99.90
12015;DHT22;6066;48.138;16.402;2023-03-03T12:12:43;11.60;99.90
12015;DHT22;6066;48.138;16.402;2023-03-03T12:15:14;11.70;99.90
12015;DHT22;6066;48.138;16.402;2023-03-03T12:17:50;11.80;99.90
12015;DHT22;6066;48.138;16.402;2023-03-03T12:20:21;11.90;99.90
12015;DHT22;6066;48.138;16.402;2023-03-03T12:22:51;11.90;99.90
12015;DHT22;6066;48.138;16.402;2023-03-03T12:25:22;12.00;99.90
12015;DHT22;6066;48.138;16.402;2023-03-03T12:27:54;12.20;99.90
12015;DHT22;6066;48.138;16.402;2023-03-03T12:30:25;12.30;99.90
12015;DHT22;6066;48.138;16.402;2023-03-03T12:33:00;12.30;99.90
12015;DHT22;6066;48.138;16.402;2023-03-03T12:35:28;12.30;99.90
12015;DHT22;6066;48.138;16.402;2023-03-03T12:37:56;12.20;99.90
12015;DHT22;6066;48.138;16.402;2023-03-03T12:40:30;12.10;99.90
12015;DHT22;6066;48.138;16.402;2023-03-03T12:43:01;12.20;99.90
12015;DHT22;6066;48.138;16.402;2023-03-03T12:45:37;12.20;99.90
12015;DHT22;6066;48.138;16.402;2023-03-03T12:48:13;12.30;99.90
12015;DHT22;6066;48.138;16.402;2023-03-03T12:50:43;12.50;99.90
12015;DHT22;6066;48.138;16.402;2023-03-03T12:53:17;12.40;99.90
12015;DHT22;6066;48.138;16.402;2023-03-03T12:55:47;12.30;99.90
12015;DHT22;6066;48.138;16.402;2023-03-03T12:58:18;12.40;99.90
12015;DHT22;6066;48.138;16.402;2023-03-03T13:00:51;12.40;99.90
12015;DHT22;6066;48.138;16.402;2023-03-03T13:03:24;12.60;99.90
12015;DHT22;6066;48.138;16.402;2023-03-03T13:05:59;12.80;99.90
12015;DHT22;6066;48.138;16.402;2023-03-03T13:08:32;13.00;99.90
12015;DHT22;6066;48.138;16.402;2023-03-03T13:11:08;12.90;99.90
12015;DHT22;6066;48.138;16.402;2023-03-03T13:13:39;12.80;99.90
12015;DHT22;6066;48.138;16.402;2023-03-03T13:16:11;12.90;99.90
12015;DHT22;6066;48.138;16.402;2023-03-03T13:18:43;12.90;99.90
12015;DHT22;6066;48.138;16.402;2023-03-03T13:21:15;12.90;99.90
12015;DHT22;6066;48.138;16.402;2023-03-03T13:23:46;13.00;99.90
12015;DHT22;6066;48.138;16.402;2023-03-03T13:26:17;13.00;99.90
12015;DHT22;6066;48.138;16.402;2023-03-03T13:28:50;13.00;99.90
12015;DHT22;6066;48.138;16.402;2023-03-03T13:31:21;12.90;99.90
12015;DHT22;6066;48.138;16.402;2023-03-03T13:33:50;13.00;99.90
12015;DHT22;6066;48.138;16.402;2023-03-03T13:36:18;13.00;99.90
12015;DHT22;6066;48.138;16.402;2023-03-03T13:38:45;13.00;99.90
12015;DHT22;6066;48.138;16.402;2023-03-03T13:41:14;13.00;99.90
12015;DHT22;6066;48.138;16.402;2023-03-03T13:43:44;13.00;99.90
12015;DHT22;6066;48.138;16.402;2023-03-03T13:46:13;13.00;99.90
12015;DHT22;6066;48.138;16.402;2023-03-03T13:48:51;12.80;99.90
12015;DHT22;6066;48.138;16.402;2023-03-03T13:51:28;12.80;99.90
12015;DHT22;6066;48.138;16.402;2023-03-03T13:53:57;12.80;99.90
12015;DHT22;6066;48.138;16.402;2023-03-03T13:56:30;13.00;99.90
12015;DHT22;6066;48.138;16.402;2023-03-03T13:59:00;13.00;99.90
12015;DHT22;6066;48.138;16.402;2023-03-03T14:01:31;13.00;99.90
12015;DHT22;6066;48.138;16.402;2023-03-03T14:04:02;13.00;99.90
12015;DHT22;6066;48.138;16.402;2023-03-03T14:06:30;12.80;99.90
12015;DHT22;6066;48.138;16.402;2023-03-03T14:09:05;12.70;99.90
12015;DHT22;6066;48.138;16.402;2023-03-03T14:11:35;12.70;99.90
12015;DHT22;6066;48.138;16.402;2023-03-03T14:14:04;12.70;99.90
12015;DHT22;6066;48.138;16.402;2023-03-03T14:16:36;12.70;99.90
12015;DHT22;6066;48.138;16.402;2023-03-03T14:19:08;12.70;99.90
12015;DHT22;6066;48.138;16.402;2023-03-03T14:21:39;12.60;99.90
12015;DHT22;6066;48.138;16.402;2023-03-03T14:24:10;12.60;99.90
12015;DHT22;6066;48.138;16.402;2023-03-03T14:26:46;12.70;99.90
12015;DHT22;6066;48.138;16.402;2023-03-03T14:29:28;12.70;99.90
12015;DHT22;6066;48.138;16.402;2023-03-03T14:31:56;12.70;99.90
12015;DHT22;6066;48.138;16.402;2023-03-03T14:34:33;12.60;99.90
12015;DHT22;6066;48.138;16.402;2023-03-03T14:37:09;12.60;99.90
12015;DHT22;6066;48.138;16.402;2023-03-03T14:39:46;12.60;99.90
12015;DHT22;6066;48.138;16.402;2023-03-03T14:42:28;12.60;99.90
12015;DHT22;6066;48.138;16.402;2023-03-03T14:44:55;12.60;99.90
12015;DHT22;6066;48.138;16.402;2023-03-03T14:47:23;12.50;99.90
12015;DHT22;6066;48.138;16.402;2023-03-03T14:49:52;12.40;99.90
12015;DHT22;6066;48.138;16.402;2023-03-03T14:52:21;12.40;99.90
12015;DHT22;6066;48.138;16.402;2023-03-03T14:54:48;12.30;99.90
12015;DHT22;6066;48.138;16.402;2023-03-03T14:57:16;12.30;99.90
12015;DHT22;6066;48.138;16.402;2023-03-03T14:59:54;12.20;99.90
12015;DHT22;6066;48.138;16.402;2023-03-03T15:02:29;12.10;99.90
12015;DHT22;6066;48.138;16.402;2023-03-03T15:07:41;11.90;99.90
12015;DHT22;6066;48.138;16.402;2023-03-03T15:10:09;11.80;99.90
12015;DHT22;6066;48.138;16.402;2023-03-03T15:12:38;11.70;99.90
12015;DHT22;6066;48.138;16.402;2023-03-03T15:15:09;11.60;99.90
12015;DHT22;6066;48.138;16.402;2023-03-03T15:17:42;11.50;99.90
12015;DHT22;6066;48.138;16.402;2023-03-03T15:20:17;11.40;99.90
12015;DHT22;6066;48.138;16.402;2023-03-03T15:22:49;11.40;99.90
12015;DHT22;6066;48.138;16.402;2023-03-03T15:25:27;11.30;99.90
12015;DHT22;6066;48.138;16.402;2023-03-03T15:28:03;11.10;99.90
12015;DHT22;6066;48.138;16.402;2023-03-03T15:30:34;11.00;99.90
12015;DHT22;6066;48.138;16.402;2023-03-03T15:33:04;10.90;99.90
12015;DHT22;6066;48.138;16.402;2023-03-03T15:35:38;10.80;99.90
12015;DHT22;6066;48.138;16.402;2023-03-03T15:38:13;10.70;99.90
12015;DHT22;6066;48.138;16.402;2023-03-03T15:40:44;10.60;99.90
12015;DHT22;6066;48.138;16.402;2023-03-03T15:43:12;10.50;99.90
12015;DHT22;6066;48.138;16.402;2023-03-03T15:45:42;10.40;99.90
12015;DHT22;6066;48.138;16.402;2023-03-03T15:48:14;10.20;99.90
12015;DHT22;6066;48.138;16.402;2023-03-03T15:50:49;10.10;99.90
12015;DHT22;6066;48.138;16.402;2023-03-03T15:53:31;10.00;99.90
12015;DHT22;6066;48.138;16.402;2023-03-03T15:56:03;9.90;99.90
12015;DHT22;6066;48.138;16.402;2023-03-03T15:58:40;9.80;99.90
12015;DHT22;6066;48.138;16.402;2023-03-03T16:01:12;9.70;99.90
12015;DHT22;6066;48.138;16.402;2023-03-03T16:03:41;9.60;99.90
12015;DHT22;6066;48.138;16.402;2023-03-03T16:06:12;9.60;99.90
12015;DHT22;6066;48.138;16.402;2023-03-03T16:08:44;9.50;99.90